Time;durP1;ratioP1;P1;durP2;ratioP2;P2;SDS_P1;SDS_P2;PMS_P1;PMS_P2;Temp;Humidity;BMP_temperature;BMP_pressure;BME280_temperature;BME280_humidity;BME280_pressure;Samples;Min_cycle;Max_cycle;Signal;HPM_P1;HPM_P2
2023/03/28 00:00:07;;;;;;;10.88;2.60;;;;;;;-143.48;86.08;118439.88;5071230;28;20050;-69
2023/03/28 00:02:32;;;;;;;11.55;2.50;;;;;;;-143.48;86.01;118439.88;5071943;28;20039;-68
2023/03/28 00:04:58;;;;;;;17.45;3.20;;;;;;;-143.48;85.96;118439.88;5054032;28;20024;-68
2023/03/28 00:07:26;;;;;;;13.00;3.08;;;;;;;-143.48;85.34;118439.88;5053537;28;20043;-69
2023/03/28 00:09:51;;;;;;;9.68;3.38;;;;;;;-143.48;85.13;118439.88;5070543;28;20075;-69
2023/03/28 00:12:17;;;;;;;14.57;3.20;;;;;;;-143.48;85.28;118439.88;5053981;28;20480;-68
2023/03/28 00:14:42;;;;;;;10.82;3.50;;;;;;;-143.48;85.59;118439.88;5073836;28;20405;-68
2023/03/28 00:17:07;;;;;;;12.40;3.88;;;;;;;-143.48;86.19;118439.88;5072848;28;20029;-68
2023/03/28 00:19:33;;;;;;;11.48;3.40;;;;;;;-143.48;86.32;118439.88;5073435;28;20391;-69
2023/03/28 00:21:59;;;;;;;14.18;3.40;;;;;;;-143.48;86.45;118439.88;5073524;28;20431;-67
2023/03/28 00:24:24;;;;;;;7.53;2.75;;;;;;;-143.48;86.33;118439.88;5073525;28;20031;-69
2023/03/28 00:26:53;;;;;;;9.90;2.60;;;;;;;-143.48;86.20;118439.88;5055582;28;20131;-67
2023/03/28 00:29:19;;;;;;;12.85;2.60;;;;;;;-143.48;85.72;118439.88;5073532;28;20024;-67
2023/03/28 00:31:46;;;;;;;12.13;2.60;;;;;;;-143.48;85.90;118439.88;5073407;28;20020;-68
2023/03/28 00:34:12;;;;;;;8.65;2.50;;;;;;;-143.48;86.90;118439.88;5073274;28;20024;-68
2023/03/28 00:36:40;;;;;;;7.88;2.40;;;;;;;-143.48;86.80;118439.88;5073315;28;20028;-68
2023/03/28 00:39:06;;;;;;;6.40;2.60;;;;;;;-143.48;86.86;118439.88;5073303;28;20020;-68
2023/03/28 00:41:34;;;;;;;10.73;2.35;;;;;;;-143.48;87.01;118439.88;5073235;28;20051;-68
2023/03/28 00:44:00;;;;;;;6.68;2.67;;;;;;;-143.48;87.13;118439.88;5073114;28;20031;-69
2023/03/28 00:46:26;;;;;;;8.98;2.42;;;;;;;-143.48;87.35;118439.88;5055120;28;20460;-68
2023/03/28 00:48:58;;;;;;;8.73;2.88;;;;;;;-143.48;87.64;118439.88;5073207;28;20060;-68
2023/03/28 00:51:28;;;;;;;9.98;2.90;;;;;;;-143.48;87.85;118439.88;5073241;28;20052;-68
2023/03/28 00:53:56;;;;;;;11.15;2.53;;;;;;;-143.48;87.96;118439.88;5073018;28;20062;-68
2023/03/28 00:56:24;;;;;;;7.53;2.63;;;;;;;-143.48;87.97;118439.88;5073204;28;20386;-67
2023/03/28 00:58:50;;;;;;;8.15;2.92;;;;;;;-143.48;88.11;118439.88;5073083;28;20017;-68
2023/03/28 01:01:18;;;;;;;19.63;3.60;;;;;;;-143.48;88.46;118439.88;5055047;28;20036;-69
2023/03/28 01:03:48;;;;;;;10.43;3.00;;;;;;;-143.48;88.10;118439.88;5055111;28;20044;-69
2023/03/28 01:06:15;;;;;;;6.65;2.70;;;;;;;-143.48;88.09;118439.88;5055005;28;20028;-69
2023/03/28 01:08:43;;;;;;;9.27;2.63;;;;;;;-143.48;88.87;118439.88;5073100;28;20051;-69
2023/03/28 01:11:10;;;;;;;4.72;2.20;;;;;;;-143.48;88.92;118439.88;5054937;28;20024;-68
2023/03/28 01:13:40;;;;;;;13.38;2.58;;;;;;;-143.48;88.71;118439.88;5072885;28;20376;-69
2023/03/28 01:16:07;;;;;;;10.63;2.78;;;;;;;-143.48;87.90;118439.88;5072901;28;20099;-70
2023/03/28 01:18:35;;;;;;;7.18;2.58;;;;;;;-143.48;88.30;118439.88;5054787;28;20032;-69
2023/03/28 01:21:00;;;;;;;8.10;2.25;;;;;;;-143.48;88.30;118439.88;5072999;28;20024;-70
2023/03/28 01:24:00;;;;;;;6.88;2.20;;;;;;;-143.48;87.94;118439.88;5072858;28;20087;-70
2023/03/28 01:26:40;;;;;;;13.68;1.90;;;;;;;-143.48;88.27;118439.88;5072903;28;20052;-68
2023/03/28 01:29:34;;;;;;;8.00;2.13;;;;;;;-143.48;88.38;118439.88;5058911;28;20576;-69
2023/03/28 01:32:31;;;;;;;11.68;2.35;;;;;;;-143.48;87.76;118439.88;5076841;28;20433;-69
2023/03/28 01:35:27;;;;;;;5.75;1.63;;;;;;;-143.48;88.04;118439.88;5076669;28;20028;-67
2023/03/28 01:38:06;;;;;;;8.05;2.10;;;;;;;-143.48;88.71;118439.88;5076600;28;20360;-69
2023/03/28 01:40:36;;;;;;;7.10;2.00;;;;;;;-143.48;88.56;118439.88;5076732;28;20031;-68
2023/03/28 01:43:07;;;;;;;8.18;2.28;;;;;;;-143.48;89.27;118439.88;5076611;28;20027;-68
2023/03/28 01:45:49;;;;;;;6.40;2.08;;;;;;;-143.48;88.38;118439.88;5076476;28;20059;-69
2023/03/28 01:48:28;;;;;;;9.57;2.50;;;;;;;-143.48;87.75;118439.88;5076396;28;20051;-69
2023/03/28 01:51:06;;;;;;;20.08;3.00;;;;;;;-143.48;88.09;118439.88;5076388;28;20039;-68
2023/03/28 01:53:45;;;;;;;9.25;2.28;;;;;;;-143.48;88.50;118439.88;5076189;28;20404;-70
2023/03/28 01:56:30;;;;;;;12.20;1.80;;;;;;;-143.48;87.81;118439.88;5058411;28;20119;-69
2023/03/28 01:59:04;;;;;;;10.23;1.95;;;;;;;-143.48;87.81;118439.88;5076536;28;20051;-69
2023/03/28 02:01:44;;;;;;;9.30;2.10;;;;;;;-143.48;87.66;118439.88;5076234;28;20103;-68
2023/03/28 02:04:13;;;;;;;7.03;2.35;;;;;;;-143.48;87.31;118439.88;5076157;28;20365;-69
2023/03/28 02:06:41;;;;;;;8.00;2.20;;;;;;;-143.48;86.88;118439.88;5076072;28;20031;-68
2023/03/28 02:09:09;;;;;;;9.80;2.83;;;;;;;-143.48;86.45;118439.88;5058178;28;20472;-69
2023/03/28 02:11:36;;;;;;;9.23;2.63;;;;;;;-143.48;86.69;118439.88;5058044;28;20029;-69
2023/03/28 02:14:23;;;;;;;10.88;2.40;;;;;;;-143.48;86.55;118439.88;5075871;28;20028;-68
2023/03/28 02:16:53;;;;;;;9.23;2.58;;;;;;;-143.48;86.27;118439.88;5075880;28;20499;-70
2023/03/28 02:19:23;;;;;;;9.32;2.55;;;;;;;-143.48;85.93;118439.88;5057855;28;20120;-69
2023/03/28 02:22:08;;;;;;;9.98;2.20;;;;;;;-143.48;86.13;118439.88;5075844;28;20028;-69
2023/03/28 02:24:33;;;;;;;13.63;2.35;;;;;;;-143.48;86.57;118439.88;5075830;28;20437;-69
2023/03/28 02:26:59;;;;;;;13.52;3.17;;;;;;;-143.48;86.72;118439.88;5075718;28;20024;-67
2023/03/28 02:29:27;;;;;;;9.70;2.40;;;;;;;-143.48;86.71;118439.88;5075875;28;20025;-67
2023/03/28 02:31:52;;;;;;;10.43;2.40;;;;;;;-143.48;86.25;118439.88;5075656;28;20028;-68
2023/03/28 02:34:18;;;;;;;6.57;2.20;;;;;;;-143.48;87.54;118439.88;5075775;28;20029;-68
2023/03/28 02:37:25;;;;;;;10.07;2.30;;;;;;;-143.48;88.43;118439.88;5075747;28;20024;-68
2023/03/28 02:40:20;;;;;;;8.35;2.20;;;;;;;-143.48;88.20;118439.88;5074124;28;20458;-68
2023/03/28 02:43:03;;;;;;;11.20;2.35;;;;;;;-143.48;87.91;118439.88;5075667;28;20017;-69
2023/03/28 02:45:29;;;;;;;13.60;2.50;;;;;;;-143.48;87.68;118439.88;5075414;28;20074;-68
2023/03/28 02:48:16;;;;;;;17.20;2.78;;;;;;;-143.48;87.32;118439.88;5075477;28;20021;-70
2023/03/28 02:51:11;;;;;;;9.93;2.53;;;;;;;-143.48;86.32;118439.88;5075258;28;20021;-68
2023/03/28 02:53:57;;;;;;;11.13;2.88;;;;;;;-143.48;85.81;118439.88;5057104;28;20033;-69
2023/03/28 02:56:41;;;;;;;10.05;2.63;;;;;;;-143.48;84.75;118439.88;5075173;28;20028;-69
2023/03/28 02:59:24;;;;;;;9.27;2.50;;;;;;;-143.48;84.78;118439.88;5075232;28;20020;-69
2023/03/28 03:01:50;;;;;;;10.88;2.72;;;;;;;-143.48;84.52;118439.88;5075366;28;20028;-69
2023/03/28 03:04:16;;;;;;;24.73;3.25;;;;;;;-143.48;84.95;118439.88;5075062;28;20020;-68
2023/03/28 03:06:44;;;;;;;11.35;3.00;;;;;;;-143.48;85.05;118439.88;5075130;28;20038;-68
2023/03/28 03:09:10;;;;;;;10.07;3.10;;;;;;;-143.48;84.82;118439.88;5074970;28;20102;-68
2023/03/28 03:11:35;;;;;;;15.00;2.97;;;;;;;-143.48;85.20;118439.88;5075035;28;20067;-68
2023/03/28 03:14:01;;;;;;;18.65;3.30;;;;;;;-143.48;85.08;118439.88;5074836;28;20072;-67
2023/03/28 03:16:27;;;;;;;9.25;2.80;;;;;;;-143.48;85.83;118439.88;5056888;28;20028;-68
2023/03/28 03:18:53;;;;;;;9.77;3.40;;;;;;;-143.48;85.42;118439.88;5056836;28;20021;-68
2023/03/28 03:21:18;;;;;;;8.80;2.90;;;;;;;-143.48;85.49;118439.88;5056808;28;20490;-68
2023/03/28 03:23:44;;;;;;;11.32;2.92;;;;;;;-143.48;85.21;118439.88;5074688;28;20035;-69
2023/03/28 03:26:09;;;;;;;9.90;2.90;;;;;;;-143.48;85.18;118439.88;5056715;28;20099;-68
2023/03/28 03:28:35;;;;;;;10.23;3.20;;;;;;;-143.48;86.41;118439.88;5074546;28;20111;-68
2023/03/28 03:31:00;;;;;;;8.63;3.03;;;;;;;-143.48;85.75;118439.88;5074585;28;20082;-69
2023/03/28 03:33:26;;;;;;;8.93;3.22;;;;;;;-143.48;86.04;118439.88;5056532;28;20461;-68
2023/03/28 03:35:52;;;;;;;10.43;2.95;;;;;;;-143.48;86.53;118439.88;5074603;28;20043;-69
2023/03/28 03:38:17;;;;;;;12.38;2.80;;;;;;;-143.48;86.91;118439.88;5074400;28;20017;-69
2023/03/28 03:40:43;;;;;;;10.30;3.40;;;;;;;-143.48;86.71;118439.88;5056360;28;20028;-69
2023/03/28 03:43:08;;;;;;;9.77;3.05;;;;;;;-143.48;86.06;118439.88;5074452;28;20020;-69
2023/03/28 03:45:34;;;;;;;13.57;3.50;;;;;;;-143.48;85.76;118439.88;5074302;28;20471;-68
2023/03/28 03:47:59;;;;;;;26.10;3.50;;;;;;;-143.48;85.67;118439.88;5074276;28;20059;-69
2023/03/28 03:50:25;;;;;;;8.85;2.90;;;;;;;-143.48;86.20;118439.88;5073907;28;20032;-69
2023/03/28 03:52:50;;;;;;;10.48;3.55;;;;;;;-143.48;86.18;118439.88;5073852;28;20115;-68
2023/03/28 03:55:16;;;;;;;9.68;2.97;;;;;;;-143.48;85.77;118439.88;5056128;28;20131;-69
2023/03/28 03:57:42;;;;;;;11.75;2.90;;;;;;;-143.48;85.60;118439.88;5056256;28;20124;-68
2023/03/28 04:00:11;;;;;;;10.88;2.88;;;;;;;-143.48;85.66;118439.88;5073926;28;20027;-69
2023/03/28 04:02:37;;;;;;;9.40;3.10;;;;;;;-143.48;86.43;118439.88;5074031;28;20021;-68
2023/03/28 04:05:03;;;;;;;10.30;3.30;;;;;;;-143.48;86.92;118439.88;5073914;28;20119;-68
2023/03/28 04:07:28;;;;;;;10.82;3.08;;;;;;;-143.48;86.41;118439.88;5073881;28;20099;-69
2023/03/28 04:09:54;;;;;;;15.00;2.97;;;;;;;-143.48;85.49;118439.88;5073719;28;20025;-69
2023/03/28 04:12:19;;;;;;;9.02;3.20;;;;;;;-143.48;86.44;118439.88;5073835;28;20024;-69
2023/03/28 04:14:44;;;;;;;11.50;3.13;;;;;;;-143.48;85.99;118439.88;5055830;28;20357;-69
2023/03/28 04:17:12;;;;;;;9.70;3.30;;;;;;;-143.48;85.67;118439.88;5073728;28;20557;-69
2023/03/28 04:19:38;;;;;;;14.80;3.10;;;;;;;-143.48;85.11;118439.88;5073906;28;20020;-69
2023/03/28 04:22:06;;;;;;;10.27;2.88;;;;;;;-143.48;85.20;118439.88;5073640;28;20039;-68
2023/03/28 04:24:32;;;;;;;10.07;3.00;;;;;;;-143.48;84.58;118439.88;5073434;28;20016;-69
2023/03/28 04:26:58;;;;;;;11.52;3.22;;;;;;;-143.48;85.55;118439.88;5073460;28;20039;-68
2023/03/28 04:29:29;;;;;;;8.98;2.92;;;;;;;-143.48;84.72;118439.88;5073518;28;20028;-68
2023/03/28 04:31:57;;;;;;;10.13;2.78;;;;;;;-143.48;85.10;118439.88;5073367;28;20033;-69
2023/03/28 04:34:28;;;;;;;12.32;3.05;;;;;;;-143.48;84.57;118439.88;5073386;28;20031;-69
2023/03/28 04:37:00;;;;;;;5.93;2.78;;;;;;;-143.48;84.32;118439.88;5073377;28;20078;-70
2023/03/28 04:39:30;;;;;;;11.82;2.95;;;;;;;-143.48;84.14;118439.88;5073169;28;20104;-68
2023/03/28 04:41:55;;;;;;;10.27;3.22;;;;;;;-143.48;84.41;118439.88;5055258;28;20082;-68
2023/03/28 04:44:21;;;;;;;11.50;3.13;;;;;;;-143.48;85.22;118439.88;5055218;28;20012;-69
2023/03/28 04:46:47;;;;;;;8.68;2.97;;;;;;;-143.48;85.09;118439.88;5073338;28;20078;-69
2023/03/28 04:49:13;;;;;;;8.10;2.50;;;;;;;-143.48;84.99;118439.88;5073242;28;20039;-68
2023/03/28 04:51:39;;;;;;;14.38;3.13;;;;;;;-143.48;84.20;118439.88;5073167;28;20028;-69
2023/03/28 04:54:04;;;;;;;12.93;2.88;;;;;;;-143.48;84.17;118439.88;5072922;28;20045;-69
2023/03/28 04:56:30;;;;;;;11.57;3.20;;;;;;;-143.48;84.33;118439.88;5073109;28;20028;-68
2023/03/28 04:58:55;;;;;;;8.32;3.00;;;;;;;-143.48;83.74;118439.88;5073074;28;20032;-69
2023/03/28 05:01:21;;;;;;;11.30;3.45;;;;;;;-143.48;83.40;118439.88;5072735;28;20028;-69
2023/03/28 05:03:46;;;;;;;11.77;3.15;;;;;;;-143.48;83.74;118439.88;5072839;28;20020;-69
2023/03/28 05:06:11;;;;;;;9.50;3.17;;;;;;;-143.48;84.13;118439.88;5055088;28;20063;-68
2023/03/28 05:08:37;;;;;;;9.15;3.40;;;;;;;-143.48;84.48;118439.88;5073016;28;20028;-68
2023/03/28 05:11:02;;;;;;;12.05;3.80;;;;;;;-143.48;84.05;118439.88;5073062;28;20020;-67
2023/03/28 05:13:28;;;;;;;10.77;3.72;;;;;;;-143.48;84.26;118439.88;5073112;28;20017;-68
2023/03/28 05:15:53;;;;;;;7.07;3.08;;;;;;;-143.48;84.03;118439.88;5073040;28;20109;-68
2023/03/28 05:18:18;;;;;;;8.68;3.70;;;;;;;-143.48;84.19;118439.88;5072958;28;20043;-69
2023/03/28 05:20:44;;;;;;;12.25;3.80;;;;;;;-143.48;84.72;118439.88;5072949;28;20025;-69
2023/03/28 05:23:09;;;;;;;12.32;3.20;;;;;;;-143.48;84.66;118439.88;5072799;28;20118;-68
2023/03/28 05:25:35;;;;;;;14.00;3.83;;;;;;;-143.48;83.40;118439.88;5054798;28;20430;-69
2023/03/28 05:28:01;;;;;;;9.75;3.85;;;;;;;-143.48;84.05;118439.88;5072720;28;20541;-68
2023/03/28 05:30:27;;;;;;;13.77;3.70;;;;;;;-143.48;83.91;118439.88;5054735;28;20020;-68
2023/03/28 05:32:52;;;;;;;9.27;3.95;;;;;;;-143.48;84.53;118439.88;5072715;28;20028;-68
2023/03/28 05:35:18;;;;;;;11.02;3.35;;;;;;;-143.48;84.92;118439.88;5054745;28;20024;-69
2023/03/28 05:37:44;;;;;;;14.05;5.68;;;;;;;-143.48;84.15;118439.88;5072938;28;20025;-68
2023/03/28 05:40:10;;;;;;;10.82;4.22;;;;;;;-143.48;84.03;118439.88;5072605;28;20108;-68
2023/03/28 05:42:37;;;;;;;17.75;4.38;;;;;;;-143.48;83.49;118439.88;5073398;28;20060;-68
2023/03/28 05:45:07;;;;;;;13.80;4.32;;;;;;;-143.48;83.81;118439.88;5073043;28;20103;-68
2023/03/28 05:47:33;;;;;;;14.43;4.20;;;;;;;-143.48;83.21;118439.88;5055523;28;20020;-67
2023/03/28 05:49:58;;;;;;;17.35;4.38;;;;;;;-143.48;83.67;118439.88;5073424;28;20024;-69
2023/03/28 05:52:24;;;;;;;10.27;3.97;;;;;;;-143.48;83.69;118439.88;5054744;28;20028;-70
2023/03/28 05:54:49;;;;;;;10.40;4.07;;;;;;;-143.48;83.06;118439.88;5072429;28;20492;-68
2023/03/28 05:57:15;;;;;;;11.25;4.85;;;;;;;-143.48;82.96;118439.88;5072614;28;20499;-68
2023/03/28 05:59:41;;;;;;;15.65;4.97;;;;;;;-143.48;83.39;118439.88;5072428;28;20024;-69
2023/03/28 06:02:19;;;;;;;10.40;4.32;;;;;;;-143.48;83.06;118439.88;5072512;28;20415;-69
2023/03/28 06:04:44;;;;;;;12.45;5.40;;;;;;;-143.48;83.32;118439.88;5054454;28;20024;-69
2023/03/28 06:07:10;;;;;;;9.23;3.88;;;;;;;-143.48;83.05;118439.88;5072060;28;20464;-69
2023/03/28 06:09:37;;;;;;;12.10;4.18;;;;;;;-143.48;82.86;118439.88;5071990;28;20024;-69
2023/03/28 06:12:03;;;;;;;17.70;4.57;;;;;;;-143.48;82.95;118439.88;5072102;28;20078;-69
2023/03/28 06:14:29;;;;;;;14.20;3.65;;;;;;;-143.48;82.73;118439.88;5074806;28;20115;-69
2023/03/28 06:16:54;;;;;;;10.55;3.63;;;;;;;-143.48;82.41;118439.88;5057728;28;20128;-68
2023/03/28 06:19:20;;;;;;;9.30;3.70;;;;;;;-143.48;82.88;118439.88;5075646;28;20024;-68
2023/03/28 06:21:45;;;;;;;9.68;3.40;;;;;;;-143.48;83.15;118439.88;5075556;28;20468;-69
2023/03/28 06:24:11;;;;;;;10.63;3.50;;;;;;;-143.48;82.93;118439.88;5075485;28;20107;-68
2023/03/28 06:26:36;;;;;;;10.80;3.42;;;;;;;-143.48;82.46;118439.88;5075706;28;20024;-68
2023/03/28 06:29:02;;;;;;;7.38;3.47;;;;;;;-143.48;82.28;118439.88;5057258;28;20021;-68
2023/03/28 06:31:28;;;;;;;10.63;3.25;;;;;;;-143.48;81.57;118439.88;5075408;28;20024;-68
2023/03/28 06:33:53;;;;;;;13.73;3.90;;;;;;;-143.48;81.10;118439.88;5075477;28;20037;-68
2023/03/28 06:36:19;;;;;;;10.95;3.40;;;;;;;-143.48;80.68;118439.88;5075356;28;20438;-69
2023/03/28 06:38:45;;;;;;;10.43;3.20;;;;;;;-143.48;80.02;118439.88;5057435;28;20028;-69
2023/03/28 06:41:11;;;;;;;12.25;4.05;;;;;;;-143.48;79.48;118439.88;5057360;28;20043;-68
2023/03/28 06:43:40;;;;;;;8.13;3.40;;;;;;;-143.48;78.89;118439.88;5076015;28;20027;-68
2023/03/28 06:46:05;;;;;;;14.15;4.78;;;;;;;-143.48;77.93;118439.88;5057822;28;20059;-70
2023/03/28 06:48:31;;;;;;;12.80;3.13;;;;;;;-143.48;77.09;118439.88;5075397;28;20022;-69
2023/03/28 06:50:57;;;;;;;15.30;3.28;;;;;;;-143.48;76.44;118439.88;5075311;28;20028;-70
2023/03/28 06:53:23;;;;;;;10.23;2.83;;;;;;;-143.48;76.19;118439.88;5075126;28;20045;-71
2023/03/28 06:55:50;;;;;;;12.95;3.25;;;;;;;-143.48;76.27;118439.88;5075271;28;20075;-69
2023/03/28 06:58:16;;;;;;;10.25;3.03;;;;;;;-143.48;76.80;118439.88;5075098;28;20020;-68
2023/03/28 07:00:42;;;;;;;12.18;3.10;;;;;;;-143.48;76.05;118439.88;5075170;28;20349;-68
2023/03/28 07:03:07;;;;;;;14.80;3.25;;;;;;;-143.48;75.78;118439.88;5075030;28;20127;-68
2023/03/28 07:05:38;;;;;;;8.60;2.95;;;;;;;-143.48;75.40;118439.88;5074939;28;20541;-69
2023/03/28 07:08:05;;;;;;;8.98;2.97;;;;;;;-143.48;74.47;118439.88;5074822;28;20112;-69
2023/03/28 07:10:31;;;;;;;8.70;3.10;;;;;;;-143.48;73.96;118439.88;5074812;28;20052;-69
2023/03/28 07:12:56;;;;;;;11.90;3.50;;;;;;;-143.48;74.83;118439.88;5074733;28;20055;-69
2023/03/28 07:15:21;;;;;;;14.05;3.20;;;;;;;-143.48;74.04;118439.88;5074771;28;20078;-68
2023/03/28 07:17:47;;;;;;;12.23;2.95;;;;;;;-143.48;73.03;118439.88;5056677;28;20024;-68
2023/03/28 07:20:12;;;;;;;14.13;3.33;;;;;;;-143.48;72.63;118439.88;5057393;28;20032;-69
2023/03/28 07:22:37;;;;;;;12.90;3.10;;;;;;;-143.48;66.75;118439.88;5057607;28;20021;-68
2023/03/28 07:25:03;;;;;;;14.07;3.63;;;;;;;-143.48;59.59;118439.88;5056686;28;20223;-69
2023/03/28 07:27:28;;;;;;;14.35;3.15;;;;;;;-143.48;54.47;118439.88;5074439;28;20027;-68
2023/03/28 07:29:54;;;;;;;9.82;3.13;;;;;;;-143.48;52.72;118439.88;5074392;28;20369;-68
2023/03/28 07:32:19;;;;;;;11.20;2.97;;;;;;;-143.48;52.63;118439.88;5074324;28;20544;-68
2023/03/28 07:34:45;;;;;;;11.73;3.03;;;;;;;-143.48;50.50;118439.88;5074215;28;20104;-69
2023/03/28 07:37:10;;;;;;;6.88;2.95;;;;;;;-143.48;50.74;118439.88;5056804;28;20020;-69
2023/03/28 07:39:38;;;;;;;11.98;3.20;;;;;;;-143.48;52.26;118439.88;5075263;28;20035;-67
2023/03/28 07:42:09;;;;;;;12.13;3.10;;;;;;;-143.48;48.29;118439.88;5056331;28;20399;-68
2023/03/28 07:44:34;;;;;;;8.45;2.83;;;;;;;-143.48;47.19;118439.88;5074119;28;20035;-68
2023/03/28 07:47:00;;;;;;;14.55;3.45;;;;;;;-143.48;48.37;118439.88;5074279;28;20028;-68
2023/03/28 07:49:26;;;;;;;11.02;3.00;;;;;;;-143.48;49.18;118439.88;5074207;28;20077;-68
2023/03/28 07:51:54;;;;;;;13.43;3.00;;;;;;;-143.48;51.95;118439.88;5074207;28;20028;-70
2023/03/28 07:54:20;;;;;;;14.00;3.55;;;;;;;-143.48;54.63;118439.88;5073731;28;20408;-68
2023/03/28 07:56:47;;;;;;;13.40;3.17;;;;;;;-143.48;53.53;118439.88;5074049;28;20094;-69
2023/03/28 07:59:13;;;;;;;10.35;3.28;;;;;;;-143.48;50.32;118439.88;5073779;28;20035;-69
2023/03/28 08:01:44;;;;;;;9.82;3.13;;;;;;;-143.48;47.98;118439.88;5055797;28;20092;-68
2023/03/28 08:04:11;;;;;;;12.80;3.30;;;;;;;-143.48;45.45;118439.88;5073904;28;20020;-68
2023/03/28 08:06:38;;;;;;;9.52;3.00;;;;;;;-143.48;46.14;118439.88;5055752;28;20483;-68
2023/03/28 08:09:08;;;;;;;16.35;4.55;;;;;;;-143.48;46.49;118439.88;5073706;28;20051;-67
2023/03/28 08:11:35;;;;;;;11.07;3.20;;;;;;;-143.48;46.97;118439.88;5073530;28;20066;-69
2023/03/28 08:14:02;;;;;;;12.45;2.90;;;;;;;-143.48;47.32;118439.88;5055508;28;20047;-69
2023/03/28 08:16:28;;;;;;;7.85;2.83;;;;;;;-143.48;46.39;118439.88;5073521;28;20103;-70
2023/03/28 08:18:53;;;;;;;9.52;3.13;;;;;;;-143.48;46.98;118439.88;5055526;28;20055;-69
2023/03/28 08:21:18;;;;;;;8.63;2.92;;;;;;;-143.48;48.98;118439.88;5055555;28;20020;-69
2023/03/28 08:23:44;;;;;;;7.65;2.65;;;;;;;-143.48;50.34;118439.88;5055569;28;20078;-69
2023/03/28 08:26:09;;;;;;;8.00;2.80;;;;;;;-143.48;46.58;118439.88;5073317;28;20029;-70
2023/03/28 08:28:36;;;;;;;12.77;2.90;;;;;;;-143.48;46.03;118439.88;5073407;28;20115;-69
2023/03/28 08:31:12;;;;;;;9.20;3.05;;;;;;;-143.48;47.02;118439.88;5073390;28;20024;-70
2023/03/28 08:33:39;;;;;;;9.95;2.47;;;;;;;-143.48;47.32;118439.88;5071465;28;20056;-70
2023/03/28 08:36:05;;;;;;;8.38;2.63;;;;;;;-143.48;45.38;118439.88;5053129;28;20025;-69
2023/03/28 08:38:31;;;;;;;9.07;2.80;;;;;;;-143.48;44.61;118439.88;5072027;28;20029;-69
2023/03/28 08:41:02;;;;;;;10.45;2.67;;;;;;;-143.48;43.40;118439.88;5072598;28;20115;-69
2023/03/28 08:43:41;;;;;;;7.10;2.40;;;;;;;-143.48;45.00;118439.88;5054910;28;20391;-68
2023/03/28 08:46:12;;;;;;;6.32;2.50;;;;;;;-143.48;45.07;118439.88;5055124;28;20074;-70
2023/03/28 08:48:42;;;;;;;7.85;2.42;;;;;;;-143.48;43.74;118439.88;5073424;28;20082;-69
2023/03/28 08:51:29;;;;;;;9.85;2.28;;;;;;;-143.48;42.32;118439.88;5054929;28;20020;-67
2023/03/28 08:54:10;;;;;;;9.82;2.42;;;;;;;-143.48;43.05;118439.88;5072819;28;20448;-67
2023/03/28 08:56:44;;;;;;;7.68;2.25;;;;;;;-143.48;41.56;118439.88;5054931;28;20043;-67
2023/03/28 08:59:12;;;;;;;8.80;2.50;;;;;;;-143.48;40.58;118439.88;5072812;28;20421;-68
2023/03/28 09:01:38;;;;;;;7.57;2.20;;;;;;;-143.48;39.02;118439.88;5072728;28;20104;-67
2023/03/28 09:04:04;;;;;;;6.55;2.15;;;;;;;-143.48;38.49;118439.88;5054855;28;20528;-69
2023/03/28 09:07:01;;;;;;;9.23;2.33;;;;;;;-143.48;38.65;118439.88;5055968;28;20024;-69
2023/03/28 09:09:38;;;;;;;8.57;2.10;;;;;;;-143.48;38.24;118439.88;5071852;28;20048;-68
2023/03/28 09:12:23;;;;;;;10.75;2.20;;;;;;;-143.48;38.68;118439.88;5072956;28;20048;-69
2023/03/28 09:15:18;;;;;;;9.27;2.38;;;;;;;-143.48;40.31;118439.88;5054488;28;20035;-69
2023/03/28 09:18:13;;;;;;;8.82;2.17;;;;;;;-143.48;38.99;118439.88;5049066;28;20036;-68
2023/03/28 09:20:50;;;;;;;8.60;2.58;;;;;;;-143.48;40.37;118439.88;5073001;28;20020;-67
2023/03/28 09:23:37;;;;;;;5.93;2.35;;;;;;;-143.48;42.64;118439.88;5072783;28;20471;-67
2023/03/28 09:26:16;;;;;;;8.48;2.70;;;;;;;-143.48;42.17;118439.88;5072908;28;20060;-68
2023/03/28 09:29:22;;;;;;;9.90;2.10;;;;;;;-143.48;43.08;118439.88;5072695;28;20025;-68
2023/03/28 09:31:50;;;;;;;9.10;2.80;;;;;;;-143.48;43.85;118439.88;5054535;28;20021;-68
2023/03/28 09:34:29;;;;;;;11.30;2.90;;;;;;;-143.48;44.50;118439.88;5072463;28;20020;-68
2023/03/28 09:36:58;;;;;;;10.45;2.70;;;;;;;-143.48;44.15;118439.88;5072186;28;20036;-68
2023/03/28 09:39:32;;;;;;;7.47;2.80;;;;;;;-143.48;44.77;118439.88;5072274;28;20079;-67
2023/03/28 09:42:22;;;;;;;8.05;2.35;;;;;;;-143.48;44.88;118439.88;5072406;28;20058;-68
2023/03/28 09:45:01;;;;;;;6.35;2.70;;;;;;;-143.48;44.47;118439.88;5072517;28;20407;-67
2023/03/28 09:47:26;;;;;;;7.97;2.67;;;;;;;-143.48;44.55;118439.88;5054332;28;20067;-67
2023/03/28 09:49:51;;;;;;;7.63;2.70;;;;;;;-143.48;44.07;118439.88;5076225;28;20476;-67
2023/03/28 09:52:19;;;;;;;8.27;2.58;;;;;;;-143.48;45.62;118439.88;5076448;28;20110;-67
2023/03/28 09:54:46;;;;;;;8.93;2.83;;;;;;;-143.48;44.91;118439.88;5076268;28;20597;-66
2023/03/28 09:57:12;;;;;;;9.90;2.55;;;;;;;-143.48;45.25;118439.88;5076253;28;20468;-66
2023/03/28 09:59:37;;;;;;;7.18;2.63;;;;;;;-143.48;44.62;118439.88;5076462;28;20028;-67
2023/03/28 10:02:03;;;;;;;9.43;3.00;;;;;;;-143.48;44.06;118439.88;5076343;28;20384;-67
2023/03/28 10:04:28;;;;;;;8.50;2.78;;;;;;;-143.48;44.36;118439.88;5076331;28;20367;-67
2023/03/28 10:07:15;;;;;;;6.00;2.83;;;;;;;-143.48;43.07;118439.88;5076288;28;20078;-67
2023/03/28 10:09:55;;;;;;;8.55;2.95;;;;;;;-143.48;44.88;118439.88;5076158;28;20035;-67
2023/03/28 10:12:24;;;;;;;12.57;3.22;;;;;;;-143.48;44.83;118439.88;5076287;28;20025;-67
2023/03/28 10:14:50;;;;;;;12.38;3.00;;;;;;;-143.48;45.71;118439.88;5076088;28;20487;-67
2023/03/28 10:17:31;;;;;;;9.23;3.38;;;;;;;-143.48;44.99;118439.88;5076187;28;20028;-67
2023/03/28 10:20:17;;;;;;;8.35;3.00;;;;;;;-143.48;44.17;118439.88;5057977;28;20119;-66
2023/03/28 10:22:45;;;;;;;6.85;2.78;;;;;;;-143.48;44.03;118439.88;5076400;28;20021;-67
2023/03/28 10:25:20;;;;;;;9.18;2.90;;;;;;;-143.48;43.51;118439.88;5075730;28;20036;-67
2023/03/28 10:27:47;;;;;;;8.85;2.90;;;;;;;-143.48;43.39;118439.88;5057748;28;20082;-66
2023/03/28 10:30:12;;;;;;;7.43;2.80;;;;;;;-143.48;42.65;118439.88;5075780;28;20557;-67
2023/03/28 10:32:38;;;;;;;6.93;2.90;;;;;;;-143.48;43.93;118439.88;5075657;28;20032;-67
2023/03/28 10:35:22;;;;;;;9.88;2.90;;;;;;;-143.48;44.45;118439.88;5075724;28;20029;-66
2023/03/28 10:37:53;;;;;;;6.45;2.33;;;;;;;-143.48;45.90;118439.88;5075693;28;20446;-66
2023/03/28 10:40:19;;;;;;;7.82;2.95;;;;;;;-143.48;46.55;118439.88;5076124;28;20024;-66
2023/03/28 10:42:45;;;;;;;11.07;2.70;;;;;;;-143.48;45.56;118439.88;5075707;28;20074;-66
2023/03/28 10:45:33;;;;;;;9.10;2.80;;;;;;;-143.48;45.48;118439.88;5075413;28;20107;-67
2023/03/28 10:48:00;;;;;;;9.02;2.65;;;;;;;-143.48;45.74;118439.88;5075520;28;20051;-67
2023/03/28 10:50:50;;;;;;;10.98;2.90;;;;;;;-143.48;44.60;118439.88;5057467;28;20148;-68
2023/03/28 10:53:31;;;;;;;10.10;2.90;;;;;;;-143.48;44.55;118439.88;5074879;28;20039;-67
2023/03/28 10:56:25;;;;;;;9.80;3.55;;;;;;;-143.48;44.57;118439.88;5075171;28;20392;-66
2023/03/28 10:59:12;;;;;;;9.98;2.72;;;;;;;-143.48;43.67;118439.88;5075497;28;20016;-66
2023/03/28 11:01:43;;;;;;;6.80;2.63;;;;;;;-143.48;44.47;118439.88;5074987;28;20024;-66
2023/03/28 11:04:26;;;;;;;7.30;2.65;;;;;;;-143.48;43.95;118439.88;5075273;28;20070;-66
2023/03/28 11:06:58;;;;;;;7.97;2.67;;;;;;;-143.48;42.92;118439.88;5075492;28;20158;-67
2023/03/28 11:09:40;;;;;;;6.22;2.80;;;;;;;-143.48;42.87;118439.88;5075003;28;20036;-67
2023/03/28 11:12:20;;;;;;;5.05;2.42;;;;;;;-143.48;42.81;118439.88;5056699;28;20054;-66
2023/03/28 11:15:00;;;;;;;5.40;2.20;;;;;;;-143.48;41.98;118439.88;5074649;28;20027;-67
2023/03/28 11:17:44;;;;;;;5.30;1.95;;;;;;;-143.48;40.51;118439.88;5074829;28;20032;-67